PWSweather.com
Personal Weather Stations
Station Observations
JTOWN
Canterbrook Farms, Jeffersontown, KY 40299

Canterbrook FarmsJeffersontown, KY 40299

Lat: 38.155364, Lon: -85.47956

Elevation: 510

Station Type: Davis Vantage Pro2

http://www.canterbrookfarms.org/wx

Latest ConditionsUpdated 11:30:01 PM EST Friday, Feb 12, 2016
Currently Today's Max Today's Min Today's Average
Temperature 25.7°F-3.5°C 32.9°F0.5°C 23.2°F-4.9°C 27.5°F-2.5°C
Dew Point 10.0°F-12.2°C 22.0°F-5.6°C 9.7°F-12.4°C 16.7°F-8.5°C
Winds 10.0 mph NW16.1 kmh NW 13.0 mph WNW20.9 kmh WNW - 4.4 mph 7.1 kmh
Wind Gusts 17.0 mph27.4 kmh 23.0 mph37.0 kmh - -
Humidity 51% 73% 50% 63%
Pressure 30.33 in1027.1 mb 30.33 in1027.1 mb 30.14 in1020.7 mb -
Hour Temp Dew Point Humidity Winds Wind Gusts Pressure Precip Precip Rate Daily Precip Total
11:30 PM 25.7°F-3.5°C 10.0°F-12.2°C 51% 10.0 mph NW16.1 kmh NW 17.0 mph27.4 kmh 30.33 in1027.1 mb 0.00 in0.0 mm 0.00 in0.0 mm 0.00 in0.0 mm
11:15 PM 25.8°F-3.4°C 9.7°F-12.4°C 50% 10.0 mph NW16.1 kmh NW 18.0 mph29.0 kmh 30.32 in1026.8 mb 0.00 in0.0 mm 0.00 in0.0 mm 0.00 in0.0 mm
11:00 PM 25.7°F-3.5°C 10.0°F-12.2°C 51% 7.0 mph WNW11.3 kmh WNW 14.0 mph22.5 kmh 30.33 in1027.1 mb 0.00 in0.0 mm 0.00 in0.0 mm 0.00 in0.0 mm
10:45 PM 25.6°F-3.6°C 11.7°F-11.3°C 55% 9.0 mph WNW14.5 kmh WNW 19.0 mph30.6 kmh 30.33 in1027.1 mb 0.00 in0.0 mm 0.00 in0.0 mm 0.00 in0.0 mm
10:30 PM 25.4°F-3.7°C 13.4°F-10.3°C 60% 9.0 mph NW14.5 kmh NW 15.0 mph24.1 kmh 30.32 in1026.8 mb 0.00 in0.0 mm 0.00 in0.0 mm 0.00 in0.0 mm
10:15 PM 25.7°F-3.5°C 12.2°F-11.0°C 56% 11.0 mph NW17.7 kmh NW 15.0 mph24.1 kmh 30.32 in1026.8 mb 0.00 in0.0 mm 0.00 in0.0 mm 0.00 in0.0 mm
10:00 PM 26.3°F-3.2°C 15.0°F-9.4°C 62% 11.0 mph WNW17.7 kmh WNW 19.0 mph30.6 kmh 30.32 in1026.8 mb 0.00 in0.0 mm 0.00 in0.0 mm 0.00 in0.0 mm
09:45 PM 26.7°F-2.9°C 14.7°F-9.6°C 60% 13.0 mph WNW20.9 kmh WNW 18.0 mph29.0 kmh 30.31 in1026.4 mb 0.00 in0.0 mm 0.00 in0.0 mm 0.00 in0.0 mm
09:30 PM 27.0°F-2.8°C 14.6°F-9.7°C 59% 11.0 mph WNW17.7 kmh WNW 18.0 mph29.0 kmh 30.31 in1026.4 mb 0.00 in0.0 mm 0.00 in0.0 mm 0.00 in0.0 mm
09:15 PM 27.2°F-2.7°C 14.0°F-10.0°C 57% 12.0 mph WNW19.3 kmh WNW 20.0 mph32.2 kmh 30.29 in1025.7 mb 0.00 in0.0 mm 0.00 in0.0 mm 0.00 in0.0 mm
09:00 PM 27.2°F-2.7°C 16.3°F-8.7°C 63% 10.0 mph WNW16.1 kmh WNW 16.0 mph25.7 kmh 30.29 in1025.7 mb 0.00 in0.0 mm 0.00 in0.0 mm 0.00 in0.0 mm
08:45 PM 27.6°F-2.4°C 14.7°F-9.6°C 58% 13.0 mph WNW20.9 kmh WNW 20.0 mph32.2 kmh 30.28 in1025.4 mb 0.00 in0.0 mm 0.00 in0.0 mm 0.00 in0.0 mm
08:30 PM 28.4°F-2.0°C 15.1°F-9.4°C 57% 11.0 mph WNW17.7 kmh WNW 23.0 mph37.0 kmh 30.27 in1025.1 mb 0.00 in0.0 mm 0.00 in0.0 mm 0.00 in0.0 mm
08:15 PM 28.5°F-1.9°C 14.8°F-9.6°C 56% 8.0 mph W12.9 kmh W 15.0 mph24.1 kmh 30.27 in1025.1 mb 0.00 in0.0 mm 0.00 in0.0 mm 0.00 in0.0 mm
08:00 PM 28.4°F-2.0°C 15.1°F-9.4°C 57% 9.0 mph WNW14.5 kmh WNW 19.0 mph30.6 kmh 30.26 in1024.7 mb 0.00 in0.0 mm 0.00 in0.0 mm 0.00 in0.0 mm
07:45 PM 28.7°F-1.8°C 16.2°F-8.8°C 59% 12.0 mph NW19.3 kmh NW 22.0 mph35.4 kmh 30.26 in1024.7 mb 0.00 in0.0 mm 0.00 in0.0 mm 0.00 in0.0 mm
07:30 PM 29.0°F-1.7°C 18.3°F-7.6°C 64% 10.0 mph WNW16.1 kmh WNW 18.0 mph29.0 kmh 30.25 in1024.4 mb 0.00 in0.0 mm 0.00 in0.0 mm 0.00 in0.0 mm
07:15 PM 29.1°F-1.6°C 18.8°F-7.3°C 65% 8.0 mph WNW12.9 kmh WNW 14.0 mph22.5 kmh 30.24 in1024.0 mb 0.00 in0.0 mm 0.00 in0.0 mm 0.00 in0.0 mm
07:00 PM 29.5°F-1.4°C 19.5°F-6.9°C 66% 9.0 mph WNW14.5 kmh WNW 20.0 mph32.2 kmh 30.23 in1023.7 mb 0.00 in0.0 mm 0.00 in0.0 mm 0.00 in0.0 mm
06:45 PM 29.5°F-1.4°C 19.5°F-6.9°C 66% 9.0 mph WNW14.5 kmh WNW 19.0 mph30.6 kmh 30.23 in1023.7 mb 0.00 in0.0 mm 0.00 in0.0 mm 0.00 in0.0 mm
06:30 PM 29.5°F-1.4°C 19.9°F-6.7°C 67% 7.0 mph W11.3 kmh W 14.0 mph22.5 kmh 30.22 in1023.4 mb 0.00 in0.0 mm 0.00 in0.0 mm 0.00 in0.0 mm
06:15 PM 29.8°F-1.2°C 19.8°F-6.8°C 66% 9.0 mph W14.5 kmh W 16.0 mph25.7 kmh 30.21 in1023.0 mb 0.00 in0.0 mm 0.00 in0.0 mm 0.00 in0.0 mm
06:00 PM 30.0°F-1.1°C 19.7°F-6.8°C 65% 8.0 mph W12.9 kmh W 19.0 mph30.6 kmh 30.21 in1023.0 mb 0.00 in0.0 mm 0.00 in0.0 mm 0.00 in0.0 mm
05:45 PM 30.3°F-0.9°C 19.6°F-6.9°C 64% 7.0 mph W11.3 kmh W 20.0 mph32.2 kmh 30.20 in1022.7 mb 0.00 in0.0 mm 0.00 in0.0 mm 0.00 in0.0 mm
05:30 PM 30.4°F-0.9°C 20.0°F-6.7°C 65% 6.0 mph W9.7 kmh W 13.0 mph20.9 kmh 30.20 in1022.7 mb 0.00 in0.0 mm 0.00 in0.0 mm 0.00 in0.0 mm
05:15 PM 30.7°F-0.7°C 20.3°F-6.5°C 65% 9.0 mph W14.5 kmh W 19.0 mph30.6 kmh 30.18 in1022.0 mb 0.00 in0.0 mm 0.00 in0.0 mm 0.00 in0.0 mm
05:00 PM 31.2°F-0.4°C 20.8°F-6.2°C 65% 9.0 mph WNW14.5 kmh WNW 15.0 mph24.1 kmh 30.18 in1022.0 mb 0.00 in0.0 mm 0.00 in0.0 mm 0.00 in0.0 mm
04:45 PM 31.8°F-0.1°C 21.0°F-6.1°C 64% 9.0 mph W14.5 kmh W 16.0 mph25.7 kmh 30.17 in1021.7 mb 0.00 in0.0 mm 0.00 in0.0 mm 0.00 in0.0 mm
04:30 PM 32.2°F0.1°C 21.0°F-6.1°C 63% 8.0 mph W12.9 kmh W 15.0 mph24.1 kmh 30.17 in1021.7 mb 0.00 in0.0 mm 0.00 in0.0 mm 0.00 in0.0 mm
04:15 PM 32.1°F0.1°C 20.5°F-6.4°C 62% 9.0 mph WNW14.5 kmh WNW 17.0 mph27.4 kmh 30.15 in1021.0 mb 0.00 in0.0 mm 0.00 in0.0 mm 0.00 in0.0 mm
04:00 PM 32.5°F0.3°C 20.9°F-6.2°C 62% 9.0 mph WNW14.5 kmh WNW 18.0 mph29.0 kmh 30.15 in1021.0 mb 0.00 in0.0 mm 0.00 in0.0 mm 0.00 in0.0 mm
03:45 PM 32.9°F0.5°C 20.9°F-6.2°C 61% 8.0 mph W12.9 kmh W 16.0 mph25.7 kmh 30.14 in1020.7 mb 0.00 in0.0 mm 0.00 in0.0 mm 0.00 in0.0 mm
03:30 PM 32.8°F0.4°C 21.2°F-6.0°C 62% 8.0 mph WNW12.9 kmh WNW 16.0 mph25.7 kmh 30.14 in1020.7 mb 0.00 in0.0 mm 0.00 in0.0 mm 0.00 in0.0 mm
03:15 PM 32.4°F0.2°C 21.6°F-5.8°C 64% 8.0 mph WNW12.9 kmh WNW 16.0 mph25.7 kmh 30.14 in1020.7 mb 0.00 in0.0 mm 0.00 in0.0 mm 0.00 in0.0 mm
03:00 PM 32.1°F0.1°C 21.7°F-5.7°C 65% 7.0 mph WNW11.3 kmh WNW 11.0 mph17.7 kmh 30.14 in1020.7 mb 0.00 in0.0 mm 0.00 in0.0 mm 0.00 in0.0 mm
02:45 PM 32.1°F0.1°C 22.0°F-5.6°C 66% 6.0 mph WNW9.7 kmh WNW 11.0 mph17.7 kmh 30.14 in1020.7 mb 0.00 in0.0 mm 0.00 in0.0 mm 0.00 in0.0 mm
02:30 PM 31.8°F-0.1°C 21.4°F-5.9°C 65% 5.0 mph W8.0 kmh W 12.0 mph19.3 kmh 30.15 in1021.0 mb 0.00 in0.0 mm 0.00 in0.0 mm 0.00 in0.0 mm
02:15 PM 31.8°F-0.1°C 21.7°F-5.7°C 66% 8.0 mph WNW12.9 kmh WNW 15.0 mph24.1 kmh 30.15 in1021.0 mb 0.00 in0.0 mm 0.00 in0.0 mm 0.00 in0.0 mm
02:00 PM 31.6°F-0.2°C 21.2°F-6.0°C 65% 9.0 mph WNW14.5 kmh WNW 16.0 mph25.7 kmh 30.15 in1021.0 mb 0.00 in0.0 mm 0.00 in0.0 mm 0.00 in0.0 mm
01:45 PM 31.9°F-0.1°C 21.5°F-5.8°C 65% 6.0 mph WSW9.7 kmh WSW 12.0 mph19.3 kmh 30.15 in1021.0 mb 0.00 in0.0 mm 0.00 in0.0 mm 0.00 in0.0 mm
01:30 PM 31.9°F-0.1°C 21.1°F-6.1°C 64% 7.0 mph WNW11.3 kmh WNW 13.0 mph20.9 kmh 30.16 in1021.3 mb 0.00 in0.0 mm 0.00 in0.0 mm 0.00 in0.0 mm
01:15 PM 31.8°F-0.1°C 21.4°F-5.9°C 65% 5.0 mph W8.0 kmh W 13.0 mph20.9 kmh 30.16 in1021.3 mb 0.00 in0.0 mm 0.00 in0.0 mm 0.00 in0.0 mm
01:00 PM 31.3°F-0.4°C 20.5°F-6.4°C 64% 6.0 mph WSW9.7 kmh WSW 9.0 mph14.5 kmh 30.17 in1021.7 mb 0.00 in0.0 mm 0.00 in0.0 mm 0.00 in0.0 mm
12:45 PM 31.8°F-0.1°C 21.7°F-5.7°C 66% 4.0 mph W6.4 kmh W 11.0 mph17.7 kmh 30.17 in1021.7 mb 0.00 in0.0 mm 0.00 in0.0 mm 0.00 in0.0 mm
12:30 PM 30.7°F-0.7°C 20.3°F-6.5°C 65% 4.0 mph WSW6.4 kmh WSW 7.0 mph11.3 kmh 30.18 in1022.0 mb 0.00 in0.0 mm 0.00 in0.0 mm 0.00 in0.0 mm
12:15 PM 30.4°F-0.9°C 20.0°F-6.7°C 65% 5.0 mph WSW8.0 kmh WSW 11.0 mph17.7 kmh 30.18 in1022.0 mb 0.00 in0.0 mm 0.00 in0.0 mm 0.00 in0.0 mm
12:00 PM 30.3°F-0.9°C 20.3°F-6.5°C 66% 3.0 mph W4.8 kmh W 7.0 mph11.3 kmh 30.19 in1022.4 mb 0.00 in0.0 mm 0.00 in0.0 mm 0.00 in0.0 mm
11:45 AM 29.5°F-1.4°C 20.2°F-6.6°C 68% 5.0 mph WSW8.0 kmh WSW 9.0 mph14.5 kmh 30.20 in1022.7 mb 0.00 in0.0 mm 0.00 in0.0 mm 0.00 in0.0 mm
11:30 AM 29.1°F-1.6°C 19.2°F-7.1°C 66% 1.0 mph SW1.6 kmh SW 5.0 mph8.0 kmh 30.20 in1022.7 mb 0.00 in0.0 mm 0.00 in0.0 mm 0.00 in0.0 mm
11:15 AM 28.8°F-1.8°C 19.2°F-7.1°C 67% 2.0 mph WSW3.2 kmh WSW 6.0 mph9.7 kmh 30.20 in1022.7 mb 0.00 in0.0 mm 0.00 in0.0 mm 0.00 in0.0 mm
11:00 AM 28.2°F-2.1°C 18.6°F-7.4°C 67% 4.0 mph WNW6.4 kmh WNW 7.0 mph11.3 kmh 30.21 in1023.0 mb 0.00 in0.0 mm 0.00 in0.0 mm 0.00 in0.0 mm
10:45 AM 27.9°F-2.3°C 19.0°F-7.2°C 69% 3.0 mph WSW4.8 kmh WSW 7.0 mph11.3 kmh 30.20 in1022.7 mb 0.00 in0.0 mm 0.00 in0.0 mm 0.00 in0.0 mm
10:30 AM 27.5°F-2.5°C 20.0°F-6.7°C 73% 2.0 mph WSW3.2 kmh WSW 6.0 mph9.7 kmh 30.21 in1023.0 mb 0.00 in0.0 mm 0.00 in0.0 mm 0.00 in0.0 mm
10:15 AM 27.0°F-2.8°C 19.5°F-6.9°C 73% 2.0 mph WSW3.2 kmh WSW 6.0 mph9.7 kmh 30.22 in1023.4 mb 0.00 in0.0 mm 0.00 in0.0 mm 0.00 in0.0 mm
10:00 AM 26.6°F-3.0°C 18.1°F-7.7°C 70% 3.0 mph WSW4.8 kmh WSW 7.0 mph11.3 kmh 30.22 in1023.4 mb 0.00 in0.0 mm 0.00 in0.0 mm 0.00 in0.0 mm
09:45 AM 26.7°F-2.9°C 16.9°F-8.4°C 66% 3.0 mph SW4.8 kmh SW 7.0 mph11.3 kmh 30.22 in1023.4 mb 0.00 in0.0 mm 0.00 in0.0 mm 0.00 in0.0 mm
09:30 AM 26.6°F-3.0°C 16.4°F-8.7°C 65% 2.0 mph WSW3.2 kmh WSW 6.0 mph9.7 kmh 30.21 in1023.0 mb 0.00 in0.0 mm 0.00 in0.0 mm 0.00 in0.0 mm
09:15 AM 26.1°F-3.3°C 15.6°F-9.1°C 64% Calm Calm -- 30.20 in1022.7 mb 0.00 in0.0 mm 0.00 in0.0 mm 0.00 in0.0 mm
09:00 AM 25.8°F-3.4°C 15.3°F-9.3°C 64% Calm Calm -- 30.20 in1022.7 mb 0.00 in0.0 mm 0.00 in0.0 mm 0.00 in0.0 mm
08:45 AM 25.6°F-3.6°C 15.5°F-9.2°C 65% Calm Calm -- 30.19 in1022.4 mb 0.00 in0.0 mm 0.00 in0.0 mm 0.00 in0.0 mm
08:30 AM 25.4°F-3.7°C 15.3°F-9.3°C 65% Calm Calm -- 30.19 in1022.4 mb 0.00 in0.0 mm 0.00 in0.0 mm 0.00 in0.0 mm
08:15 AM 25.4°F-3.7°C 15.6°F-9.1°C 66% Calm Calm -- 30.19 in1022.4 mb 0.00 in0.0 mm 0.00 in0.0 mm 0.00 in0.0 mm
08:00 AM 25.3°F-3.7°C 15.5°F-9.2°C 66% Calm Calm -- 30.20 in1022.7 mb 0.00 in0.0 mm 0.00 in0.0 mm 0.00 in0.0 mm
07:45 AM 25.3°F-3.7°C 15.2°F-9.3°C 65% Calm Calm -- 30.20 in1022.7 mb 0.00 in0.0 mm 0.00 in0.0 mm 0.00 in0.0 mm
07:30 AM 25.3°F-3.7°C 15.5°F-9.2°C 66% Calm Calm -- 30.20 in1022.7 mb 0.00 in0.0 mm 0.00 in0.0 mm 0.00 in0.0 mm
07:15 AM 25.3°F-3.7°C 15.2°F-9.3°C 65% Calm Calm -- 30.20 in1022.7 mb 0.00 in0.0 mm 0.00 in0.0 mm 0.00 in0.0 mm
07:00 AM 25.1°F-3.8°C 15.0°F-9.4°C 65% Calm Calm -- 30.20 in1022.7 mb 0.00 in0.0 mm 0.00 in0.0 mm 0.00 in0.0 mm
06:45 AM 25.1°F-3.8°C 15.0°F-9.4°C 65% Calm Calm -- 30.20 in1022.7 mb 0.00 in0.0 mm 0.00 in0.0 mm 0.00 in0.0 mm
06:30 AM 25.1°F-3.8°C 14.6°F-9.7°C 64% Calm Calm -- 30.20 in1022.7 mb 0.00 in0.0 mm 0.00 in0.0 mm 0.00 in0.0 mm
06:15 AM 25.1°F-3.8°C 14.6°F-9.7°C 64% Calm Calm -- 30.20 in1022.7 mb 0.00 in0.0 mm 0.00 in0.0 mm 0.00 in0.0 mm
06:00 AM 25.3°F-3.7°C 14.5°F-9.7°C 63% Calm Calm -- 30.22 in1023.4 mb 0.00 in0.0 mm 0.00 in0.0 mm 0.00 in0.0 mm
05:45 AM 25.3°F-3.7°C 14.1°F-9.9°C 62% Calm Calm -- 30.22 in1023.4 mb 0.00 in0.0 mm 0.00 in0.0 mm 0.00 in0.0 mm
05:30 AM 25.1°F-3.8°C 13.5°F-10.3°C 61% Calm Calm -- 30.21 in1023.0 mb 0.00 in0.0 mm 0.00 in0.0 mm 0.00 in0.0 mm
05:15 AM 25.1°F-3.8°C 13.2°F-10.4°C 60% Calm Calm -- 30.21 in1023.0 mb 0.00 in0.0 mm 0.00 in0.0 mm 0.00 in0.0 mm
05:00 AM 25.1°F-3.8°C 13.5°F-10.3°C 61% Calm Calm 5.0 mph8.0 kmh 30.20 in1022.7 mb 0.00 in0.0 mm 0.00 in0.0 mm 0.00 in0.0 mm
04:45 AM 25.1°F-3.8°C 13.5°F-10.3°C 61% Calm Calm 5.0 mph8.0 kmh 30.20 in1022.7 mb 0.00 in0.0 mm 0.00 in0.0 mm 0.00 in0.0 mm
04:30 AM 25.1°F-3.8°C 13.5°F-10.3°C 61% 1.0 mph E1.6 kmh E 4.0 mph6.4 kmh 30.20 in1022.7 mb 0.00 in0.0 mm 0.00 in0.0 mm 0.00 in0.0 mm
04:15 AM 25.1°F-3.8°C 13.9°F-10.1°C 62% 1.0 mph E1.6 kmh E 5.0 mph8.0 kmh 30.20 in1022.7 mb 0.00 in0.0 mm 0.00 in0.0 mm 0.00 in0.0 mm
04:00 AM 25.0°F-3.9°C 13.8°F-10.1°C 62% 1.0 mph E1.6 kmh E 5.0 mph8.0 kmh 30.20 in1022.7 mb 0.00 in0.0 mm 0.00 in0.0 mm 0.00 in0.0 mm
03:45 AM 25.0°F-3.9°C 13.8°F-10.1°C 62% 1.0 mph NE1.6 kmh NE 4.0 mph6.4 kmh 30.23 in1023.7 mb 0.00 in0.0 mm 0.00 in0.0 mm 0.00 in0.0 mm
03:30 AM 24.8°F-4.0°C 14.0°F-10.0°C 63% Calm Calm -- 30.23 in1023.7 mb 0.00 in0.0 mm 0.00 in0.0 mm 0.00 in0.0 mm
03:15 AM 24.8°F-4.0°C 14.0°F-10.0°C 63% Calm Calm -- 30.23 in1023.7 mb 0.00 in0.0 mm 0.00 in0.0 mm 0.00 in0.0 mm
03:00 AM 24.8°F-4.0°C 14.0°F-10.0°C 63% Calm Calm -- 30.24 in1024.0 mb 0.00 in0.0 mm 0.00 in0.0 mm 0.00 in0.0 mm
02:45 AM 24.7°F-4.1°C 13.5°F-10.3°C 62% Calm Calm -- 30.24 in1024.0 mb 0.00 in0.0 mm 0.00 in0.0 mm 0.00 in0.0 mm
02:30 AM 24.5°F-4.2°C 13.7°F-10.2°C 63% Calm Calm -- 30.23 in1023.7 mb 0.00 in0.0 mm 0.00 in0.0 mm 0.00 in0.0 mm
02:15 AM 24.5°F-4.2°C 13.7°F-10.2°C 63% Calm Calm -- 30.25 in1024.4 mb 0.00 in0.0 mm 0.00 in0.0 mm 0.00 in0.0 mm
02:00 AM 24.5°F-4.2°C 13.7°F-10.2°C 63% Calm Calm -- 30.25 in1024.4 mb 0.00 in0.0 mm 0.00 in0.0 mm 0.00 in0.0 mm
01:45 AM 24.5°F-4.2°C 13.3°F-10.4°C 62% Calm Calm -- 30.26 in1024.7 mb 0.00 in0.0 mm 0.00 in0.0 mm 0.00 in0.0 mm
01:30 AM 24.1°F-4.4°C 14.0°F-10.0°C 65% Calm Calm -- 30.27 in1025.1 mb 0.00 in0.0 mm 0.00 in0.0 mm 0.00 in0.0 mm
01:15 AM 23.8°F-4.6°C 14.4°F-9.8°C 67% Calm Calm -- 30.27 in1025.1 mb 0.00 in0.0 mm 0.00 in0.0 mm 0.00 in0.0 mm
01:00 AM 23.5°F-4.7°C 14.5°F-9.7°C 68% Calm Calm -- 30.28 in1025.4 mb 0.00 in0.0 mm 0.00 in0.0 mm 0.00 in0.0 mm
12:45 AM 23.2°F-4.9°C 14.2°F-9.9°C 68% Calm Calm -- 30.28 in1025.4 mb 0.00 in0.0 mm 0.00 in0.0 mm 0.00 in0.0 mm
12:30 AM 23.2°F-4.9°C 13.9°F-10.1°C 67% Calm Calm -- 30.29 in1025.7 mb 0.00 in0.0 mm 0.00 in0.0 mm 0.00 in0.0 mm
12:15 AM 23.6°F-4.7°C 13.2°F-10.4°C 64% Calm Calm -- 30.29 in1025.7 mb 0.00 in0.0 mm 0.00 in0.0 mm 0.00 in0.0 mm
12:00 AM 23.9°F-4.5°C 12.0°F-11.1°C 60% Calm Calm -- 30.30 in1026.1 mb 0.00 in0.0 mm 0.00 in0.0 mm 0.01 in0.3 mm